Flight Track Log - Related Links

Times and Time Zones

All times are in EDT time to prevent confusion due to time zone crossing. See the EJA831 flight status page for this flight to view local times or setup timezone preferences in your user account.

Time Position Orientation Groundspeed Altitude Reporting Facility
EDT Latitude Longitude Course Direction KTS MPH feet Rate Location/Type
Sun 02:29:24 PM 42.9500 -87.8833 315° West 171 197 1,400  Level KMKE
Sun 02:31:45 PM 43.0136 -87.9714 315° West 240 276 8,600 3,015 Climbing Chicago Center
Sun 02:32:47 PM 43.0156 -88.0611 272° West 234 269 11,600 2,661 Climbing Chicago Center
Sun 02:33:49 PM 43.0183 -88.1833 272° West 274 315 14,100 2,516 Climbing Chicago Center
Sun 02:34:51 PM 43.0175 -88.2975 269° West 297 342 16,800 2,661 Climbing Chicago Center
Sun 02:35:53 PM 43.0161 -88.4158 269° West 307 353 19,600 2,274 Climbing Chicago Center
Sun 02:36:55 PM 43.0158 -88.5350 270° West 311 358 21,500 1,887 Climbing Chicago Center
Sun 02:37:57 PM 43.0142 -88.6594 269° West 322 371 23,500 1,839 Climbing Chicago Center
Sun 02:38:59 PM 43.0128 -88.7889 269° West 334 384 25,300 1,742 Climbing Chicago Center
Sun 02:40:01 PM 43.0097 -88.9433 269° West 344 396 27,100 1,694 Climbing Chicago Center
Sun 02:41:03 PM 43.0075 -89.0792 269° West 353 406 28,800 1,500 Climbing Chicago Center
Sun 02:42:05 PM 43.0061 -89.2161 269° West 357 411 30,200 1,355 Climbing Chicago Center
Sun 02:43:07 PM 43.0022 -89.3564 268° West 367 422 31,600 1,161 Climbing Chicago Center
Sun 02:44:09 PM 43.0000 -89.5006 269° West 375 432 32,600 1,152 Climbing Chicago Center
Sun 02:45:12 PM 42.9956 -89.6514 268° West 393 452 34,000 1,632 Climbing Chicago Center
Sun 02:46:14 PM 42.9978 -89.8122 271° West 364 419 36,000 968 Climbing Chicago Center
Sun 02:47:16 PM 42.9811 -89.9547 261° West 378 435 36,000  Level Chicago Center
Sun 02:48:18 PM 42.9522 -90.0892 254° West 374 430 36,000  Level Chicago Center
Sun 02:49:20 PM 42.9222 -90.2214 253° West 370 426 36,000  Level Chicago Center
Sun 02:50:22 PM 42.8950 -90.3553 255° West 370 426 36,000  Level Chicago Center
Sun 02:51:24 PM 42.8642 -90.4897 253° West 373 429 36,000  Level Chicago Center
Sun 02:52:26 PM 42.8258 -90.6572 253° West 387 445 36,000  Level Chicago Center
Sun 02:53:28 PM 42.7942 -90.7972 253° West 389 448 36,000  Level Chicago Center
Sun 02:54:30 PM 42.7625 -90.9322 252° West 381 438 36,000  Level Chicago Center
Sun 02:55:32 PM 42.7325 -91.0672 253° West 377 434 36,000  Level Chicago Center
Sun 02:56:34 PM 42.7014 -91.1992 252° West 371 427 36,000  Level Chicago Center
Sun 02:57:37 PM 42.6642 -91.3581 252° West 368 423 36,000  Level Chicago Center
Sun 02:58:33 PM 42.6378 -91.4639 251° West 369 425 36,000  Level Minneapolis Center
Sun 02:59:43 PM 42.6008 -91.6247 253° West 368 423 36,000  Level Chicago Center
Sun 03:00:46 PM 42.5706 -91.7567 253° West 366 421 36,000  Level Chicago Center
Sun 03:01:48 PM 42.5386 -91.8883 252° West 367 422 36,000  Level Chicago Center
Sun 03:02:50 PM 42.5014 -92.0439 252° West 364 419 36,000  Level Chicago Center
Sun 03:03:52 PM 42.4706 -92.1722 252° West 361 415 36,000  Level Chicago Center
Sun 03:04:54 PM 42.4389 -92.3022 252° West 366 421 36,000 -290 Level Chicago Center
Sun 03:05:56 PM 42.4064 -92.4333 251° West 369 425 35,400 -737 Descending Chicago Center
Sun 03:06:48 PM 42.3800 -92.5433 252° West 376 433 34,600 -743 Descending Minneapolis Center
Sun 03:07:49 PM 42.3386 -92.7161 252° West 398 458 34,000 -293 Descending Minneapolis Center
Sun 03:08:51 PM 42.3047 -92.8525 251° West 390 449 34,000  Level Minneapolis Center
Sun 03:09:52 PM 42.2706 -92.9847 251° West 380 437 34,000  Level Minneapolis Center
Sun 03:10:54 PM 42.2367 -93.1172 251° West 378 435 34,000  Level Minneapolis Center
Sun 03:12:07 PM 42.2033 -93.2483 251° West 374 430 34,000  Level Minneapolis Center
Sun 03:13:09 PM 42.1700 -93.3789 251° West 373 429 34,000  Level Minneapolis Center
Sun 03:14:10 PM 42.1303 -93.5358 251° West 372 428 34,000 -537 Level Minneapolis Center
Sun 03:15:12 PM 42.0906 -93.6936 251° West 375 432 32,900 -1,210 Descending Minneapolis Center
Sun 03:16:14 PM 42.0550 -93.8267 250° West 381 438 31,500 -1,415 Descending Minneapolis Center
Sun 03:17:15 PM 42.0181 -93.9739 251° West 386 444 30,000 -1,415 Descending Minneapolis Center
Sun 03:18:17 PM 41.9836 -94.1047 251° West 375 432 28,600 -1,366 Descending Minneapolis Center
Sun 03:19:18 PM 41.9486 -94.2328 250° West 367 422 27,200 -1,366 Descending Minneapolis Center
Sun 03:20:20 PM 41.9169 -94.3558 251° West 353 406 25,800 -1,366 Descending Minneapolis Center
Sun 03:21:21 PM 41.8825 -94.4739 249° West 341 392 24,400 -1,366 Descending Minneapolis Center
Sun 03:22:23 PM 41.8283 -94.5694 233° Southwest 323 372 23,000 -1,415 Descending Minneapolis Center
Sun 03:23:24 PM 41.7747 -94.6639 233° Southwest 318 366 21,500 -1,463 Descending Minneapolis Center
Sun 03:24:26 PM 41.7242 -94.7547 233° Southwest 308 354 20,000 -1,610 Descending Minneapolis Center
Sun 03:25:27 PM 41.6656 -94.8622 234° Southwest 298 343 18,200 -1,837 Descending Minneapolis Center
Sun 03:26:04 PM 41.6461 -94.9269 248° West 296 341 17,000 -1,770 Descending Minneapolis Center
Sun 03:26:28 PM 41.6153 -94.9494 209° Southwest 296 341 16,400 -1,100 Descending Minneapolis Center
Sun 03:27:04 PM 41.5958 -95.0117 247° West 292 336 15,900 -968 Descending Minneapolis Center
Sun 03:27:30 PM 41.5769 -95.0400 228° Southwest 286 329 15,400 -1,770 Descending Minneapolis Center
Sun 03:28:05 PM 41.5761 -95.1175 269° West 293 337 14,100 -2,164 Descending Minneapolis Center
Sun 03:28:31 PM 41.5600 -95.1475 234° Southwest 295 339 13,200 -1,967 Descending Minneapolis Center
Sun 03:29:06 PM 41.5564 -95.2203 266° West 285 328 12,100 -1,935 Descending Minneapolis Center
Sun 03:29:33 PM 41.5414 -95.2475 234° Southwest 285 328 11,200 -2,000 Descending Minneapolis Center
Sun 03:30:00 PM 41.5378 -95.3092 266° West 276 318 10,300 -1,967 Descending Minneapolis Center
Sun 03:30:34 PM 41.5228 -95.3464 242° Southwest 279 321 9,200 -1,967 Descending Minneapolis Center
Sun 03:31:01 PM 41.5150 -95.4039 260° West 268 308 8,300 -1,622 Descending Minneapolis Center
Sun 03:31:48 PM 41.4983 -95.4403 239° Southwest 274 315 7,200 -1,944 Descending Minneapolis Center
Sun 03:32:49 PM 41.4689 -95.5525 251° West 270 311 4,800 -1,561 Descending Minneapolis Center
Sun 03:33:51 PM 41.4444 -95.6636 254° West 266 306 4,000 -780 Descending Minneapolis Center
Sun 03:34:52 PM 41.4311 -95.7306 255° West 218 251 3,200 -711 Descending Minneapolis Center
Sun 03:36:06 PM 41.4150 -95.8006 253° West 201 231 2,400 -318 Descending Minneapolis Center
Sun 03:37:04 PM 41.3906 -95.8808 248° West 172 198 2,500 -146 Climbing Minneapolis Center
Sun 03:38:09 PM 41.3681 -95.9125 227° Southwest 178 205 2,100 -541 Descending Minneapolis Center
Sun 03:39:06 PM 41.3281 -95.9186 187° South 108 124 1,400 -737 Descending Minneapolis Center
Sun 03:41:00 PM 41.3032 -95.8941 124° Southeast  Level Estimated

Login

Don't have an account? Register now (free) for customized features, flight alerts, and more!